Time;durP1;ratioP1;P1;durP2;ratioP2;P2;SDS_P1;SDS_P2;PMS_P1;PMS_P2;Temp;Humidity;BMP_temperature;BMP_pressure;BME280_temperature;BME280_humidity;BME280_pressure;Samples;Min_cycle;Max_cycle;Signal;HPM_P1;HPM_P2
2021/12/20 00:01:29;;;;;;;6.57;2.67;;;11.50;73.00;;;;;;10505767;28;20272;-79
2021/12/20 00:06:31;;;;;;;2.50;2.00;;;12.80;75.60;;;;;;10501797;28;20245;-80
2021/12/20 00:11:34;;;;;;;4.93;1.97;;;12.60;80.30;;;;;;10500260;28;20792;-79
2021/12/20 00:16:36;;;;;;;2.73;1.87;;;13.00;78.50;;;;;;10515011;28;20863;-79
2021/12/20 00:21:39;;;;;;;3.47;2.20;;;13.30;75.10;;;;;;10558080;28;20300;-79
2021/12/20 00:26:41;;;;;;;3.17;1.83;;;12.90;77.00;;;;;;10593118;28;20568;-80
2021/12/20 00:31:43;;;;;;;2.60;2.00;;;12.40;77.90;;;;;;10610540;28;20308;-80
2021/12/20 00:36:46;;;;;;;5.90;2.43;;;11.30;77.90;;;;;;10592062;28;20198;-79
2021/12/20 00:41:48;;;;;;;3.90;2.10;;;11.80;72.90;;;;;;10592619;28;20209;-79
2021/12/20 00:46:50;;;;;;;2.87;1.70;;;12.50;75.50;;;;;;10565389;28;20228;-79
2021/12/20 00:51:52;;;;;;;5.23;2.50;;;12.50;76.30;;;;;;10581185;28;20311;-79
2021/12/20 00:56:55;;;;;;;3.03;1.90;;;12.00;66.40;;;;;;10563137;28;20204;-80
2021/12/20 01:01:57;;;;;;;3.23;2.23;;;11.60;74.10;;;;;;10563724;28;20235;-80
2021/12/20 01:06:59;;;;;;;2.03;1.80;;;12.70;76.90;;;;;;10581103;28;20235;-79
2021/12/20 01:12:05;;;;;;;3.93;1.77;;;13.00;75.20;;;;;;10562095;28;20257;-80
2021/12/20 01:17:08;;;;;;;3.43;1.87;;;12.30;74.60;;;;;;10580975;28;20645;-79
2021/12/20 01:22:10;;;;;;;2.77;1.63;;;12.40;72.40;;;;;;10562164;28;20208;-79
2021/12/20 01:27:12;;;;;;;3.07;1.50;;;12.20;77.20;;;;;;10552170;28;20693;-79
2021/12/20 01:32:15;;;;;;;3.43;1.40;;;12.50;76.00;;;;;;10548271;28;20319;-80
2021/12/20 01:37:18;;;;;;;2.57;1.47;;;12.70;73.60;;;;;;10561466;28;20673;-79
2021/12/20 01:42:21;;;;;;;2.50;1.43;;;13.10;74.00;;;;;;10579671;28;20237;-79
2021/12/20 01:47:28;;;;;;;5.60;2.00;;;12.90;72.30;;;;;;10579724;28;20297;-79
2021/12/20 01:52:40;;;;;;;2.30;1.67;;;13.00;65.70;;;;;;10575027;28;20248;-79
2021/12/20 01:57:43;;;;;;;3.80;1.73;;;11.70;76.60;;;;;;10559388;28;20273;-79
2021/12/20 02:02:45;;;;;;;2.93;2.20;;;12.30;75.40;;;;;;10578837;28;20222;-79
2021/12/20 02:08:13;;;;;;;3.27;1.73;;;12.10;75.10;;;;;;10559650;28;20261;-80
2021/12/20 02:13:17;;;;;;;3.50;1.60;;;11.90;77.20;;;;;;10559774;28;20284;-80
2021/12/20 02:18:19;;;;;;;2.90;1.40;;;10.50;73.00;;;;;;10560075;28;20236;-80
2021/12/20 02:23:22;;;;;;;3.23;1.30;;;11.20;74.40;;;;;;10576975;28;20289;-79
2021/12/20 02:28:24;;;;;;;2.97;1.30;;;12.30;74.80;;;;;;10558810;28;20252;-79
2021/12/20 02:38:50;;;;;;;2.80;1.77;;;12.80;72.40;;;;;;10558722;28;20559;-80
2021/12/20 02:44:00;;;;;;;3.07;1.03;;;12.80;71.90;;;;;;10577400;28;20248;-80
2021/12/20 02:49:05;;;;;;;2.73;1.30;;;13.20;71.30;;;;;;10558316;28;20679;-80
2021/12/20 02:54:11;;;;;;;1.37;1.20;;;12.50;74.30;;;;;;10558452;28;20259;-81
2021/12/20 02:59:14;;;;;;;2.50;1.00;;;12.50;73.60;;;;;;10576808;28;20280;-80
2021/12/20 03:04:17;;;;;;;3.17;1.30;;;12.80;72.40;;;;;;10574234;28;20356;-80
2021/12/20 03:09:22;;;;;;;2.40;1.30;;;12.40;73.90;;;;;;10557478;28;20633;-80
2021/12/20 03:14:31;;;;;;;2.83;1.43;;;12.40;73.00;;;;;;10558550;28;20688;-80
2021/12/20 03:19:33;;;;;;;1.80;1.00;;;13.20;71.40;;;;;;10547600;28;20232;-80
2021/12/20 03:24:36;;;;;;;2.13;1.23;;;13.10;71.60;;;;;;10558042;28;20207;-80
2021/12/20 03:29:38;;;;;;;1.77;1.10;;;13.20;71.10;;;;;;10576201;28;20195;-80
2021/12/20 03:34:41;;;;;;;2.03;1.07;;;12.50;67.30;;;;;;10557089;28;20293;-80
2021/12/20 03:39:43;;;;;;;1.67;1.00;;;13.20;70.90;;;;;;10557923;28;20235;-80
2021/12/20 03:44:46;;;;;;;3.17;1.27;;;13.30;69.70;;;;;;10558050;28;20261;-80
2021/12/20 03:49:49;;;;;;;1.60;1.13;;;12.90;70.70;;;;;;10561121;28;20240;-80
2021/12/20 03:54:51;;;;;;;2.97;1.10;;;13.20;70.60;;;;;;10566786;28;20313;-80
2021/12/20 03:59:53;;;;;;;1.83;1.20;;;13.20;70.30;;;;;;10556615;28;20568;-80
2021/12/20 04:04:56;;;;;;;2.40;1.17;;;12.70;68.40;;;;;;10539502;28;20569;-80
2021/12/20 04:09:58;;;;;;;4.07;1.13;;;13.00;70.60;;;;;;10557149;28;20267;-80
2021/12/20 04:15:01;;;;;;;1.33;1.00;;;12.90;71.20;;;;;;10557398;28;20733;-80
2021/12/20 04:20:04;;;;;;;1.80;0.90;;;12.70;71.40;;;;;;10579588;28;20200;-80
2021/12/20 04:25:07;;;;;;;1.93;0.93;;;12.60;67.30;;;;;;10548350;28;20208;-80
2021/12/20 04:30:11;;;;;;;1.73;0.80;;;13.10;70.30;;;;;;10564407;28;20212;-80
2021/12/20 04:35:16;;;;;;;2.07;0.90;;;12.40;71.60;;;;;;10563123;28;20281;-80
2021/12/20 04:40:21;;;;;;;2.43;1.30;;;11.30;75.60;;;;;;10564315;28;20616;-80
2021/12/20 04:45:26;;;;;;;1.80;0.90;;;12.50;72.30;;;;;;10581243;28;20947;-80
2021/12/20 04:50:28;;;;;;;2.53;1.87;;;12.60;71.60;;;;;;10563173;28;20230;-80
2021/12/20 04:55:31;;;;;;;1.90;1.10;;;13.00;70.30;;;;;;10581369;28;20289;-80
2021/12/20 05:00:36;;;;;;;2.30;0.80;;;12.40;70.40;;;;;;10580766;28;20618;-80
2021/12/20 05:05:38;;;;;;;1.60;0.97;;;11.80;72.60;;;;;;10591895;27;20252;-80
2021/12/20 05:10:42;;;;;;;1.87;1.20;;;12.80;70.80;;;;;;10591581;27;20261;-80
2021/12/20 05:15:45;;;;;;;1.20;0.90;;;12.70;69.20;;;;;;10563571;28;20247;-80
2021/12/20 05:20:47;;;;;;;2.83;0.90;;;12.90;69.90;;;;;;10577238;28;20255;-80
2021/12/20 05:25:50;;;;;;;1.93;1.20;;;13.10;69.70;;;;;;10575926;28;20670;-80
2021/12/20 05:30:53;;;;;;;1.80;1.20;;;12.70;70.50;;;;;;10569820;28;20240;-80
2021/12/20 05:35:56;;;;;;;2.17;1.13;;;12.90;70.00;;;;;;10548351;28;20273;-80
2021/12/20 05:41:18;;;;;;;1.07;0.70;;;13.00;69.60;;;;;;10578816;27;20677;-80
2021/12/20 05:46:20;;;;;;;4.73;1.40;;;13.10;69.40;;;;;;10576974;28;20304;-80
2021/12/20 05:51:23;;;;;;;1.77;1.10;;;12.70;64.60;;;;;;10576274;28;20750;-80
2021/12/20 05:56:25;;;;;;;1.30;0.90;;;13.00;68.70;;;;;;10558193;28;20715;-80
2021/12/20 06:01:27;;;;;;;1.63;1.20;;;13.30;68.70;;;;;;10559218;28;20221;-80
2021/12/20 06:06:31;;;;;;;2.03;1.00;;;13.10;69.10;;;;;;10558324;28;20285;-80
2021/12/20 06:11:34;;;;;;;2.10;1.13;;;12.10;71.20;;;;;;10576132;28;20239;-80
2021/12/20 06:16:36;;;;;;;2.30;1.03;;;10.70;72.60;;;;;;10571288;28;20700;-80
2021/12/20 06:21:39;;;;;;;2.00;1.27;;;12.10;70.20;;;;;;10573895;28;20258;-80
2021/12/20 06:26:41;;;;;;;1.17;0.60;;;12.70;69.00;;;;;;10575152;28;20234;-80
2021/12/20 06:31:44;;;;;;;2.50;0.90;;;11.80;72.70;;;;;;10572287;28;20307;-80
2021/12/20 06:36:47;;;;;;;2.33;1.10;;;12.50;70.60;;;;;;10538145;28;20255;-80
2021/12/20 06:41:50;;;;;;;2.50;1.50;;;13.00;69.70;;;;;;10571623;28;20237;-80
2021/12/20 06:46:53;;;;;;;2.97;1.10;;;12.20;65.70;;;;;;10569698;28;20291;-80
2021/12/20 06:51:59;;;;;;;1.80;1.10;;;12.90;69.40;;;;;;10571623;28;20240;-80
2021/12/20 06:57:02;;;;;;;1.93;0.83;;;12.90;68.70;;;;;;10552004;28;20255;-80
2021/12/20 07:02:04;;;;;;;2.33;1.00;;;12.90;65.40;;;;;;10570670;28;20257;-80
2021/12/20 07:07:07;;;;;;;3.13;1.23;;;13.20;68.50;;;;;;10567336;28;20679;-80
2021/12/20 07:12:10;;;;;;;2.17;1.20;;;12.70;67.80;;;;;;10568988;28;20696;-80
2021/12/20 07:17:13;;;;;;;1.67;0.70;;;11.90;72.60;;;;;;10572901;28;20263;-80
2021/12/20 07:22:17;;;;;;;3.53;1.73;;;12.90;69.60;;;;;;10561017;28;20709;-80
2021/12/20 07:27:20;;;;;;;1.30;0.93;;;12.70;69.50;;;;;;10529104;28;20793;-82
2021/12/20 07:32:23;;;;;;;1.70;0.97;;;12.90;69.40;;;;;;10544681;28;20327;-82
2021/12/20 07:37:27;;;;;;;3.23;1.40;;;13.00;69.00;;;;;;10565536;28;20259;-82
2021/12/20 07:42:29;;;;;;;1.13;0.90;;;12.90;68.80;;;;;;10554462;28;20244;-81
2021/12/20 07:47:33;;;;;;;4.17;1.80;;;13.10;68.60;;;;;;10554356;28;20231;-80
2021/12/20 07:52:36;;;;;;;6.63;3.53;;;13.20;68.30;;;;;;10545350;28;20227;-81
2021/12/20 07:57:38;;;;;;;15.80;5.17;;;9.30;66.90;;;;;;10538753;28;20302;-83
2021/12/20 08:02:41;;;;;;;11.90;4.67;;;9.60;91.70;;;;;;10561447;28;20312;-83
2021/12/20 08:07:45;;;;;;;4.13;2.63;;;11.80;81.60;;;;;;10541455;28;20288;-81
2021/12/20 08:12:48;;;;;;;8.50;3.40;;;11.90;86.50;;;;;;10580230;27;20976;-80
2021/12/20 08:17:51;;;;;;;6.70;3.43;;;12.90;80.30;;;;;;10574050;28;20973;-80
2021/12/20 08:22:54;;;;;;;6.07;3.20;;;13.20;77.60;;;;;;10575856;28;20285;-80
2021/12/20 08:27:56;;;;;;;7.20;2.70;;;13.60;76.50;;;;;;10573861;28;20258;-80
2021/12/20 08:33:00;;;;;;;7.57;3.70;;;13.10;75.40;;;;;;10571885;28;20257;-80
2021/12/20 08:38:02;;;;;;;11.93;3.30;;;13.40;75.50;;;;;;10571965;28;20289;-80
2021/12/20 08:43:08;;;;;;;7.27;2.73;;;13.60;74.80;;;;;;10565537;28;20262;-80
2021/12/20 08:48:10;;;;;;;7.53;2.97;;;12.90;76.10;;;;;;10571867;28;20273;-81
2021/12/20 08:53:13;;;;;;;7.67;3.13;;;12.00;78.00;;;;;;10575658;27;20249;-81
2021/12/20 08:58:15;;;;;;;5.83;2.73;;;12.90;76.30;;;;;;10575047;28;20620;-81
2021/12/20 09:03:18;;;;;;;8.30;2.90;;;13.00;75.60;;;;;;10562502;28;20232;-81
2021/12/20 09:08:22;;;;;;;7.60;4.10;;;12.10;76.90;;;;;;10550409;27;20285;-81
2021/12/20 09:13:24;;;;;;;7.27;3.63;;;9.10;78.00;;;;;;10568432;28;20255;-81
2021/12/20 09:18:27;;;;;;;5.50;2.40;;;11.00;78.60;;;;;;10562383;28;20265;-80
2021/12/20 09:23:32;;;;;;;4.70;3.77;;;12.40;77.30;;;;;;10571783;28;20988;-81
2021/12/20 09:28:34;;;;;;;6.07;2.47;;;11.50;65.10;;;;;;10555514;28;20209;-81
2021/12/20 09:33:37;;;;;;;5.80;2.30;;;10.20;85.20;;;;;;10558510;28;20783;-81
2021/12/20 09:38:40;;;;;;;3.67;2.67;;;11.90;79.10;;;;;;10577384;28;20666;-82
2021/12/20 09:43:48;;;;;;;4.87;2.13;;;11.30;70.00;;;;;;10559938;28;20298;-81
2021/12/20 09:48:50;;;;;;;4.10;1.93;;;8.50;90.90;;;;;;10548673;28;20222;-81
2021/12/20 09:53:55;;;;;;;5.63;2.70;;;5.00;89.00;;;;;;10593292;27;20269;-80
2021/12/20 09:58:59;;;;;;;8.53;2.90;;;6.80;99.90;;;;;;10593920;27;20228;-80
2021/12/20 10:04:04;;;;;;;5.63;2.70;;;4.20;99.90;;;;;;10571720;28;20633;-80
2021/12/20 10:09:13;;;;;;;3.20;2.00;;;7.10;99.90;;;;;;10554149;28;20674;-79
2021/12/20 10:14:16;;;;;;;5.83;3.33;;;10.80;99.90;;;;;;10551799;28;20706;-80
2021/12/20 10:19:32;;;;;;;6.13;2.53;;;9.80;85.90;;;;;;10564356;28;20703;-80
2021/12/20 10:24:36;;;;;;;8.03;2.87;;;11.90;97.00;;;;;;10562079;28;20250;-80
2021/12/20 10:29:40;;;;;;;3.60;2.40;;;;;;;;;;10573942;28;20938;-79
2021/12/20 10:34:43;;;;;;;4.97;1.93;;;9.80;75.30;;;;;;10547835;28;20264;-79
2021/12/20 10:39:45;;;;;;;2.83;1.73;;;10.10;99.90;;;;;;10568422;28;20242;-79
2021/12/20 10:45:08;;;;;;;3.80;1.80;;;6.70;86.60;;;;;;10571955;28;20278;-79
2021/12/20 10:50:31;;;;;;;5.43;2.03;;;5.70;91.30;;;;;;10572585;28;20253;-80
2021/12/20 10:55:45;;;;;;;7.73;2.13;;;7.60;99.90;;;;;;10538995;28;20252;-79
2021/12/20 11:01:13;;;;;;;4.07;3.43;;;6.50;99.90;;;;;;10552872;28;20224;-79
2021/12/20 11:11:18;;;;;;;6.23;2.23;;;4.80;99.70;;;;;;10551570;28;20228;-80
2021/12/20 11:16:45;;;;;;;4.13;2.10;;;6.20;99.90;;;;;;10537187;28;20674;-80
2021/12/20 11:21:50;;;;;;;4.50;2.13;;;5.80;91.20;;;;;;10570563;28;20232;-79
2021/12/20 11:26:54;;;;;;;4.83;2.00;;;5.70;99.90;;;;;;10569097;28;20240;-79
2021/12/20 11:31:57;;;;;;;4.40;2.57;;;6.10;99.90;;;;;;10553596;28;20305;-78
2021/12/20 11:37:01;;;;;;;1.90;1.50;;;5.80;99.90;;;;;;10572655;28;20701;-81
2021/12/20 11:42:06;;;;;;;8.67;2.10;;;5.00;98.00;;;;;;10549615;28;20751;-80
2021/12/20 11:47:15;;;;;;;3.30;2.00;;;4.10;99.90;;;;;;10529376;28;20743;-81
2021/12/20 11:52:19;;;;;;;2.77;1.87;;;5.40;97.20;;;;;;10548363;28;20598;-81
2021/12/20 11:57:28;;;;;;;4.17;2.37;;;8.10;99.30;;;;;;10544009;28;20766;-81
2021/12/20 12:02:33;;;;;;;7.80;2.10;;;5.10;97.20;;;;;;10545399;28;20682;-82
2021/12/20 12:07:37;;;;;;;6.17;2.20;;;5.60;97.20;;;;;;10565205;28;20232;-82
2021/12/20 12:12:43;;;;;;;2.07;1.87;;;5.20;99.90;;;;;;10565119;28;20238;-83
2021/12/20 12:18:04;;;;;;;7.53;3.73;;;6.20;94.30;;;;;;10564705;28;20285;-83
2021/12/20 12:23:10;;;;;;;3.10;1.90;;;5.30;94.20;;;;;;10552085;28;20620;-80
2021/12/20 12:28:15;;;;;;;10.43;4.83;;;6.00;94.40;;;;;;10546531;28;20224;-79
2021/12/20 12:33:17;;;;;;;5.33;2.67;;;5.40;97.40;;;;;;10556708;28;20256;-81
2021/12/20 12:38:27;;;;;;;2.80;2.00;;;6.70;92.80;;;;;;10536765;28;20326;-81
2021/12/20 12:43:52;;;;;;;3.57;2.40;;;5.00;97.80;;;;;;10573509;28;20263;-81
2021/12/20 12:48:54;;;;;;;5.57;2.37;;;5.60;96.00;;;;;;10554639;22;20312;-83
2021/12/20 12:53:57;;;;;;;2.43;1.47;;;6.50;90.00;;;;;;10409462;28;20289;-82
2021/12/20 12:59:11;;;;;;;3.77;1.70;;;6.00;91.60;;;;;;10421695;28;20341;-82
2021/12/20 13:04:15;;;;;;;2.37;1.50;;;4.70;99.90;;;;;;10439891;28;20604;-79
2021/12/20 13:09:31;;;;;;;7.23;1.77;;;4.10;99.90;;;;;;10452640;28;20238;-80
2021/12/20 13:14:50;;;;;;;5.83;1.70;;;4.20;98.80;;;;;;10426249;28;20245;-79
2021/12/20 13:20:19;;;;;;;4.17;2.60;;;4.00;98.30;;;;;;10444384;28;20257;-79
2021/12/20 13:25:47;;;;;;;4.70;1.90;;;5.20;99.90;;;;;;10422781;28;20241;-79
2021/12/20 13:30:56;;;;;;;4.47;1.80;;;4.80;96.20;;;;;;10436302;28;20226;-79
2021/12/20 13:36:05;;;;;;;4.43;2.53;;;4.10;97.70;;;;;;10449350;28;20296;-79
2021/12/20 13:41:14;;;;;;;3.23;1.60;;;5.20;97.80;;;;;;10402008;28;20256;-79
2021/12/20 13:46:41;;;;;;;5.63;1.60;;;5.30;94.60;;;;;;10450221;28;20234;-79
2021/12/20 13:51:46;;;;;;;3.93;1.90;;;4.00;99.90;;;;;;10416664;28;20268;-80
2021/12/20 13:57:04;;;;;;;3.07;2.57;;;4.00;99.90;;;;;;10412007;28;20708;-80
2021/12/20 14:02:13;;;;;;;4.13;2.60;;;5.00;99.90;;;;;;10431921;28;20222;-84
2021/12/20 14:07:32;;;;;;;5.37;2.80;;;3.30;99.90;;;;;;10418616;28;20749;-84
2021/12/20 14:12:40;;;;;;;3.17;2.10;;;4.70;95.10;;;;;;10417620;28;20281;-81
2021/12/20 14:18:05;;;;;;;4.43;2.53;;;5.40;99.90;;;;;;10438071;28;20239;-79
2021/12/20 14:23:09;;;;;;;3.37;2.13;;;4.80;93.90;;;;;;10410940;28;20585;-79
2021/12/20 14:28:14;;;;;;;3.50;2.67;;;4.60;99.90;;;;;;10395975;28;20278;-79
2021/12/20 14:33:26;;;;;;;8.07;3.20;;;4.80;99.90;;;;;;10427343;28;20254;-80
2021/12/20 14:38:34;;;;;;;6.03;2.57;;;4.90;95.50;;;;;;10423453;28;20242;-80
2021/12/20 14:43:41;;;;;;;6.57;3.70;;;5.10;99.90;;;;;;10426099;28;20293;-79
2021/12/20 14:48:49;;;;;;;2.63;1.83;;;4.80;98.00;;;;;;10409226;28;20259;-79
2021/12/20 14:54:12;;;;;;;4.43;2.77;;;4.20;99.90;;;;;;10436590;28;20602;-79
2021/12/20 14:59:15;;;;;;;3.33;2.10;;;4.90;90.20;;;;;;10401413;28;20256;-79
2021/12/20 15:04:18;;;;;;;4.30;3.13;;;3.50;87.50;;;;;;10433335;28;20289;-80
2021/12/20 15:09:22;;;;;;;3.33;2.00;;;3.10;91.80;;;;;;10429946;28;20664;-80
2021/12/20 15:14:25;;;;;;;5.67;2.20;;;2.60;90.00;;;;;;10413975;28;20276;-80
2021/12/20 15:19:29;;;;;;;3.37;2.43;;;3.40;96.50;;;;;;10417357;28;20251;-80
2021/12/20 15:24:33;;;;;;;1.90;1.50;;;4.50;82.20;;;;;;10441927;28;20231;-80
2021/12/20 15:29:36;;;;;;;5.13;2.40;;;4.60;93.90;;;;;;10431096;28;20285;-80
2021/12/20 15:34:39;;;;;;;3.97;2.53;;;4.10;99.20;;;;;;10448815;28;20688;-79
2021/12/20 15:39:42;;;;;;;5.43;2.43;;;4.20;90.90;;;;;;10418196;28;20239;-80
2021/12/20 15:44:45;;;;;;;3.53;2.17;;;5.50;91.50;;;;;;10389992;28;20316;-79
2021/12/20 15:49:47;;;;;;;2.87;2.13;;;4.40;97.60;;;;;;10446693;28;20258;-80
2021/12/20 15:54:49;;;;;;;5.97;1.77;;;6.00;90.10;;;;;;10448326;28;20695;-79
2021/12/20 15:59:52;;;;;;;4.50;3.27;;;5.80;92.50;;;;;;10426911;28;20289;-80
2021/12/20 16:04:54;;;;;;;5.23;2.50;;;5.20;87.00;;;;;;10416628;28;20203;-79
2021/12/20 16:09:57;;;;;;;9.40;3.00;;;5.80;98.20;;;;;;10449864;28;20288;-80
2021/12/20 16:14:59;;;;;;;3.57;2.57;;;5.00;79.90;;;;;;10432988;28;20698;-80
2021/12/20 16:20:06;;;;;;;4.10;2.20;;;5.80;93.20;;;;;;10080953;28;9999747;-79
2021/12/20 16:25:12;;;;;;;8.43;4.87;;;5.40;99.90;;;;;;10452467;28;20793;-79
2021/12/20 16:30:20;;;;;;;4.20;2.93;;;5.00;83.10;;;;;;10412798;28;20232;-80
2021/12/20 16:35:25;;;;;;;14.83;10.43;;;6.00;92.30;;;;;;10411800;28;20243;-79
2021/12/20 16:40:28;;;;;;;10.67;5.43;;;5.10;84.90;;;;;;10434618;28;20223;-79
2021/12/20 16:50:53;;;;;;;8.23;4.73;;;6.30;99.70;;;;;;10451554;28;20888;-80
2021/12/20 16:55:57;;;;;;;7.70;3.90;;;5.30;83.10;;;;;;10451607;28;20272;-79
2021/12/20 17:01:02;;;;;;;11.17;5.30;;;4.30;87.70;;;;;;10433929;28;20268;-79
2021/12/20 17:06:11;;;;;;;8.80;5.00;;;5.20;84.50;;;;;;10416939;28;20231;-80
2021/12/20 17:11:14;;;;;;;16.37;7.17;;;6.50;83.60;;;;;;10405413;28;20659;-80
2021/12/20 17:16:17;;;;;;;14.67;7.17;;;7.00;81.80;;;;;;10393361;28;20239;-80
2021/12/20 17:21:20;;;;;;;7.90;3.57;;;6.50;70.50;;;;;;10449683;28;20223;-80
2021/12/20 17:26:22;;;;;;;11.50;4.70;;;6.90;94.40;;;;;;10419873;28;20234;-80
2021/12/20 17:31:25;;;;;;;3.97;2.70;;;6.60;86.10;;;;;;10450054;28;20936;-79
2021/12/20 17:36:27;;;;;;;3.00;2.50;;;8.80;92.10;;;;;;10413963;28;20729;-80
2021/12/20 17:41:30;;;;;;;5.07;3.07;;;7.80;92.80;;;;;;10428555;28;20749;-80
2021/12/20 17:46:33;;;;;;;10.10;5.27;;;8.50;78.80;;;;;;10452941;28;20230;-81
2021/12/20 17:51:35;;;;;;;4.63;2.90;;;9.10;71.50;;;;;;10410002;28;20258;-80
2021/12/20 17:56:38;;;;;;;3.53;2.27;;;10.30;86.20;;;;;;10456632;28;20305;-79
2021/12/20 18:01:40;;;;;;;2.90;2.10;;;11.20;82.40;;;;;;10436076;28;20267;-80
2021/12/20 18:06:44;;;;;;;3.33;2.40;;;12.00;78.70;;;;;;10430784;28;20635;-80
2021/12/20 18:11:48;;;;;;;3.20;2.40;;;12.20;77.10;;;;;;10481428;28;20254;-87
2021/12/20 18:16:51;;;;;;;4.33;2.50;;;12.40;75.90;;;;;;10417646;28;20248;-82
2021/12/20 18:21:53;;;;;;;3.47;2.60;;;12.30;75.70;;;;;;10433911;28;20232;-81
2021/12/20 18:26:58;;;;;;;3.20;2.10;;;12.50;74.90;;;;;;10454581;28;20233;-81
2021/12/20 18:32:02;;;;;;;4.07;2.90;;;12.70;73.90;;;;;;10417481;28;20229;-81
2021/12/20 18:37:05;;;;;;;5.00;3.10;;;12.80;73.00;;;;;;10431724;28;20251;-80
2021/12/20 18:42:07;;;;;;;6.60;3.47;;;12.80;72.80;;;;;;10432265;28;20234;-81
2021/12/20 18:47:10;;;;;;;5.00;3.47;;;12.90;72.00;;;;;;10424147;28;20914;-80
2021/12/20 18:52:13;;;;;;;9.50;5.67;;;13.00;71.80;;;;;;10445306;28;20231;-81
2021/12/20 18:57:16;;;;;;;5.67;3.77;;;12.70;71.50;;;;;;10434091;28;20702;-80
2021/12/20 19:02:22;;;;;;;8.57;5.30;;;12.90;71.20;;;;;;10428629;28;20281;-80
2021/12/20 19:07:24;;;;;;;4.17;3.00;;;12.70;67.30;;;;;;10427875;28;20334;-81
2021/12/20 19:12:33;;;;;;;4.83;3.43;;;12.80;71.40;;;;;;10426260;28;20229;-81
2021/12/20 19:17:36;;;;;;;5.90;3.50;;;11.10;70.60;;;;;;10431734;28;20652;-80
2021/12/20 19:22:44;;;;;;;7.13;3.43;;;12.20;73.40;;;;;;10428799;28;20631;-85
2021/12/20 19:27:49;;;;;;;4.47;3.30;;;11.90;72.80;;;;;;10429644;28;20279;-86
2021/12/20 19:32:52;;;;;;;10.97;6.60;;;12.50;72.20;;;;;;10409248;28;20228;-82
2021/12/20 19:37:54;;;;;;;5.90;3.07;;;11.50;68.50;;;;;;10419565;28;20659;-80
2021/12/20 19:42:57;;;;;;;5.27;3.77;;;11.70;74.70;;;;;;10423769;28;20267;-83
2021/12/20 19:47:59;;;;;;;5.20;4.00;;;11.60;74.60;;;;;;10422160;28;20700;-81
2021/12/20 19:53:04;;;;;;;4.53;3.60;;;11.70;74.60;;;;;;10433515;28;20229;-80
2021/12/20 19:58:08;;;;;;;6.00;3.47;;;12.30;73.00;;;;;;10456701;28;20253;-81
2021/12/20 20:03:14;;;;;;;4.90;3.83;;;12.50;72.00;;;;;;10406176;28;20678;-81
2021/12/20 20:08:19;;;;;;;9.70;6.40;;;11.60;74.30;;;;;;10446503;28;20232;-80
2021/12/20 20:13:27;;;;;;;4.93;3.33;;;11.80;70.00;;;;;;10439156;28;20241;-78
2021/12/20 20:18:31;;;;;;;8.00;4.73;;;12.20;72.90;;;;;;10447266;28;20712;-81
2021/12/20 20:23:35;;;;;;;5.67;3.70;;;12.40;70.70;;;;;;10418909;28;20218;-81
2021/12/20 20:28:59;;;;;;;6.70;4.13;;;12.70;71.20;;;;;;10438327;28;20270;-79
2021/12/20 20:34:02;;;;;;;5.07;3.43;;;12.60;71.10;;;;;;10419020;28;20235;-80
2021/12/20 20:39:08;;;;;;;5.07;3.70;;;12.50;71.30;;;;;;10437017;28;20617;-79
2021/12/20 20:44:11;;;;;;;4.13;3.43;;;12.70;71.00;;;;;;10419840;28;20263;-80
2021/12/20 20:49:13;;;;;;;4.93;3.70;;;12.70;70.80;;;;;;10435426;28;20252;-80
2021/12/20 20:54:16;;;;;;;4.93;3.63;;;12.80;70.40;;;;;;10420239;28;20284;-80
2021/12/20 20:59:21;;;;;;;5.57;3.73;;;12.80;70.20;;;;;;10432282;28;20280;-80
2021/12/20 21:04:25;;;;;;;4.00;3.53;;;12.90;70.00;;;;;;10437927;28;20196;-81
2021/12/20 21:09:28;;;;;;;4.27;3.50;;;12.70;70.20;;;;;;10453261;28;20244;-80
2021/12/20 21:14:30;;;;;;;7.97;4.60;;;12.80;70.30;;;;;;10436205;28;20242;-83
2021/12/20 21:19:34;;;;;;;6.00;4.37;;;12.80;70.10;;;;;;10457375;28;20221;-80
2021/12/20 21:24:36;;;;;;;6.20;4.00;;;13.00;69.50;;;;;;10445656;28;20638;-80
2021/12/20 21:29:39;;;;;;;6.83;4.40;;;12.90;69.40;;;;;;10429806;28;20288;-81
2021/12/20 21:34:41;;;;;;;6.53;4.50;;;12.70;70.00;;;;;;10439924;28;20202;-81
2021/12/20 21:39:44;;;;;;;10.50;6.50;;;11.40;73.50;;;;;;10413783;28;20235;-80
2021/12/20 21:44:47;;;;;;;4.37;3.10;;;9.80;68.30;;;;;;10435179;28;20237;-81
2021/12/20 21:49:49;;;;;;;6.17;4.33;;;11.60;73.20;;;;;;10416617;28;20326;-80
2021/12/20 21:54:52;;;;;;;6.13;4.03;;;12.10;71.80;;;;;;10435734;28;20223;-81
2021/12/20 21:59:54;;;;;;;5.93;4.20;;;11.30;74.50;;;;;;10431876;28;20730;-80
2021/12/20 22:04:57;;;;;;;5.07;3.63;;;12.10;72.10;;;;;;10421118;28;20827;-81
2021/12/20 22:09:59;;;;;;;6.33;3.83;;;12.40;70.90;;;;;;10422888;28;20230;-81
2021/12/20 22:15:02;;;;;;;4.60;3.40;;;12.60;70.30;;;;;;10426029;28;20682;-81
2021/12/20 22:20:05;;;;;;;5.90;3.77;;;12.60;70.10;;;;;;10411227;28;20264;-81
2021/12/20 22:25:09;;;;;;;6.87;3.90;;;12.30;70.30;;;;;;10401571;28;20195;-81
2021/12/20 22:30:12;;;;;;;5.90;4.10;;;12.30;71.00;;;;;;10449699;28;20295;-81
2021/12/20 22:35:15;;;;;;;7.17;4.43;;;12.40;70.70;;;;;;10441249;28;20242;-81
2021/12/20 22:40:18;;;;;;;5.90;3.87;;;12.50;70.10;;;;;;10433946;28;20257;-81
2021/12/20 22:45:20;;;;;;;7.00;4.47;;;12.60;69.80;;;;;;10417599;28;20230;-81
2021/12/20 22:50:23;;;;;;;4.83;3.70;;;12.70;69.50;;;;;;10451963;28;20647;-81
2021/12/20 22:55:26;;;;;;;4.67;3.43;;;12.60;69.60;;;;;;10422727;28;20234;-81
2021/12/20 23:00:28;;;;;;;5.60;3.50;;;12.60;69.50;;;;;;10401129;28;20369;-81
2021/12/20 23:05:31;;;;;;;4.20;3.70;;;12.60;69.20;;;;;;10451268;28;20234;-82
2021/12/20 23:10:39;;;;;;;5.67;4.13;;;12.70;69.00;;;;;;10415028;28;20237;-80
2021/12/20 23:15:42;;;;;;;5.27;3.93;;;12.60;64.70;;;;;;10422290;28;20286;-80
2021/12/20 23:20:46;;;;;;;5.23;3.57;;;12.50;69.40;;;;;;10391860;28;20316;-81
2021/12/20 23:25:50;;;;;;;6.77;4.13;;;12.30;70.10;;;;;;10436266;28;20306;-80
2021/12/20 23:30:58;;;;;;;5.43;3.70;;;12.50;67.50;;;;;;10450749;28;20291;-80
2021/12/20 23:36:02;;;;;;;6.03;3.97;;;12.70;68.80;;;;;;10432117;28;20216;-81
2021/12/20 23:41:15;;;;;;;6.70;3.67;;;12.70;68.60;;;;;;10407154;28;20247;-80
2021/12/20 23:46:19;;;;;;;6.87;3.97;;;11.80;71.10;;;;;;10411859;28;20225;-81
2021/12/20 23:51:22;;;;;;;5.40;3.60;;;12.00;70.30;;;;;;10411849;28;20258;-83
2021/12/20 23:56:24;;;;;;;5.30;3.43;;;12.40;69.60;;;;;;10430711;28;20229;-81
